アミルカル・カブラル国際空港の過去48時間の天気

アミルカル・カブラル国際空港 (Sal)

現在時刻: 1/23 02:26 -01 (1/23 03:26 UTC) 以下の時間は現地時間です。

過去48時間のMETAR気象情報
時間 風向 風速(m/s) 視程 気温(℃) 湿度(%) 気圧(hPa) 天気現象
23 02:00 東北東 5 10km以上 20 88 1015
23 01:00 東北東 5 10km以上 20 88 1015
23 00:00 東北東 5 10km以上 20 88 1015
22 23:00 東北東 5 10km以上 21 83 1015
22 22:00 東北東 6 10km以上 21 88 1016
22 21:00 東北東 5 10km以上 21 83 1015
22 20:00 東北東 5 10km以上 21 83 1014
22 19:00 東北東 5 10km以上 21 83 1014
22 18:00 東北東 6 10km以上 23 73 1013
22 17:00 東北東 6 10km以上 24 69 1013
22 16:00 東北東 6 10km以上 25 65 1013
22 15:00 - - 10km以上 26 61 1013
22 14:00 7 10km以上 26 61 1014
22 13:00 東北東 6 10km以上 26 54 1015
22 12:00 東北東 6 10km以上 26 58 1015
22 11:00 東北東 6 10km以上 25 57 1016
22 10:00 東北東 5 10km以上 24 65 1016
22 08:00 東北東 5 10km以上 20 88 1014
22 07:00 東北東 5 10km以上 19 88 1014
22 06:00 6 9000m 19 94 1013
22 05:00 東北東 6 9000m 19 94 1013
22 04:00 東北東 4 9000m 20 88 1014
22 03:00 東北東 5 9000m 20 88 1014
22 02:00 東北東 6 9000m 20 88 1015
22 01:00 東北東 5 10km以上 20 88 1015
22 00:00 東北東 5 10km以上 20 88 1015
21 23:00 東北東 5 10km以上 20 88 1015
21 22:00 東北東 6 10km以上 20 88 1015
21 21:00 東北東 6 10km以上 20 88 1014
21 20:00 東北東 5 10km以上 21 83 1014
21 19:00 東北東 6 10km以上 21 83 1013
21 18:00 東北東 5 10km以上 23 69 1013
21 17:00 東北東 6 10km以上 24 61 1012
21 16:00 6 10km以上 25 57 1012
21 15:00 7 10km以上 26 54 1012
21 14:00 東北東 7 10km以上 26 54 1012
21 13:00 東北東 6 10km以上 26 54 1013
21 12:00 北東 6 10km以上 26 58 1013
21 11:00 東北東 5 10km以上 26 58 1014
21 10:00 北東 5 10km以上 24 65 1014
21 09:00 北北東 3 9000m 21 88 1014
21 08:00 東北東 1 9000m 18 94 1014
21 07:00 北東 2 9000m 18 94 1013
21 06:00 北東 4 9000m 19 88 1012
21 05:00 北東 3 9000m 19 88 1012
21 04:00 北東 3 9000m 19 88 1011
21 03:00 北北東 3 9000m 19 88 1012
GVAC 230300Z 06009KT 9999 FEW014 20/18 Q1015 NOSIG
GVAC 230200Z 06009KT 9999 FEW014 BKN200 20/18 Q1015 NOSIG
GVAC 230100Z 06010KT 9999 FEW014 BKN200 20/18 Q1015 NOSIG
GVAC 230000Z 06009KT 9999 FEW014 BKN200 21/18 Q1015 NOSIG
GVAC 222300Z 07011KT 9999 FEW014 BKN200 21/19 Q1016 NOSIG
GVAC 222200Z 07010KT 9999 FEW014 SCT200 21/18 Q1015 NOSIG
GVAC 222100Z 07010KT 9999 FEW014 SCT200 21/18 Q1014 NOSIG
GVAC 222000Z 07010KT 9999 FEW014 BKN200 21/18 Q1014 NOSIG
GVAC 221900Z 07012KT 9999 FEW014 BKN200 23/18 Q1013 NOSIG
GVAC 221800Z 07012KT 9999 FEW014 BKN200 24/18 Q1013 NOSIG
GVAC 221700Z 07012KT 9999 FEW014 BKN200 25/18 Q1013 NOSIG
GVAC 221600Z 0801KT 9999 FEW014 BKN200 26/18 Q1013 NOSIG
GVAC 221500Z 08013KT CAVOK 26/18 Q1014 NOSIG
GVAC 221400Z 07011KT CAVOK 26/16 Q1015 NOSIG
GVAC 221300Z 07011KT CAVOK 26/17 Q1015 NOSIG
GVAC 221200Z 07011KT CAVOK 25/16 Q1016 NOSIG
GVAC 221100Z 07009KT CAVOK 24/17 Q1016 NOSIG
GVAC 220900Z 07009KT CAVOK 20/18 Q1014 NOSIG
GVAC 220800Z 07010KT CAVOK 19/17 Q1014 NOSIG
GVAC 220700Z 08011KT 9000 FEW014 19/18 Q1013 NOSIG
GVAC 220600Z 07011KT 9000 FEW014 19/18 Q1013 NOSIG
GVAC 220500Z 06008KT 9000 SCT014 20/18 Q1014 NOSIG
GVAC 220400Z 07010KT 9000 SCT014 20/18 Q1014 NOSIG
GVAC 220300Z 07011KT 9000 SCT014 20/18 Q1015 NOSIG
GVAC 220200Z 07010KT CAVOK 20/18 Q1015 NOSIG
GVAC 220100Z 06010KT CAVOK 20/18 Q1015 NOSIG
GVAC 220000Z 07010KT CAVOK 20/18 Q1015 NOSIG
GVAC 212300Z 07011KT CAVOK 20/18 Q1015 NOSIG
GVAC 212200Z 07011KT CAVOK 20/18 Q1014 NOSIG
GVAC 212100Z 06010KT CAVOK 21/18 Q1014 NOSIG
GVAC 212000Z 07012KT CAVOK 21/18 Q1013 NOSIG
GVAC 211900Z 06009KT CAVOK 23/17 Q1013 NOSIG
GVAC 211800Z 06011KT CAVOK 24/16 Q1012 NOSIG
GVAC 211700Z 08012KT 9999 FEW013 25/16 Q1012 NOSIG
GVAC 211600Z 08013KT 9999 FEW013 26/16 Q1012 NOSIG
GVAC 211500Z 07014KT 9999 FEW013 26/16 Q1012 NOSIG
GVAC 211400Z 06012KT 9999 FEW013 26/16 Q1013 NOSIG
GVAC 211300Z 05011KT 9999 FEW013 26/17 Q1013 NOSIG
GVAC 211200Z 07009KT 9999 FEW013 26/17 Q1014 NOSIG
GVAC 211100Z 05009KT 9999 FEW013 24/17 Q1014 NOSIG
GVAC 211000Z 03005KT 9000 NSC 21/19 Q1014 NOSIG
GVAC 210900Z 07002KT 9000 NSC 18/17 Q1014 NOSIG
GVAC 210800Z 05004KT 9000 NSC 18/17 Q1013 NOSIG
GVAC 210700Z 04007KT 9000 NSC 19/17 Q1012 NOSIG
GVAC 210600Z 04006KT 9000 NSC 19/17 Q1012 NOSIG
GVAC 210500Z 04006KT 9000 NSC 19/17 Q1011 NOSIG
GVAC 210400Z 03005KT 9000 NSC 19/17 Q1012 NOSIG